Historyczne dane pomiarowe

Dodano dane terminowe – wersja testowa.

Dane z okresu 1951-2019

Wersja bazy: 1.34 [2019-03-16, lista zmian], aktualizacja planowana na 2019-04-15

Dane meteo z obszaru Polski uzyskane na podstawie danych udostępnionych przez Instytut Meteorologii i Gospodarki Wodnej – Państwowy Instytut Badawczy.

 

Wybierz Datę:    

       

TemperaturaWilgotnośćWiatrCiśnienieOpadyŚniegCzas trwania zjawisk
 Stacja t tx tn tng RH VA  wxwx mslp ppp RRR   cm mm wxwxwxwxwxwxwx
1987-08-14 12.8 16.3 7.7 4.2 77.3- 8.0 5.3---- 1.5------------
1987-08-13 12.2 18.4 7.3 4.4 79.3- 5.3 1.7---- 0.0------------
1987-08-12 13.1 18.3 9.4 6.1 74.8- 3.3 1.3---- 0.0------------
1987-08-11 13.3 17.5 11.6 8.0 81.5- 5.7 1.7---- 1.7------------
1987-08-10 14.6 19.5 12.9 10.9 80.8- 7.7 0.3---- 3.4------------
1987-08-09 16.8 23.4 10.7 7.2 63.3- 2.7 3.0---- 0.7------------
1987-08-08 14.2 20.5 7.8 3.1 70.0- 3.0 2.7---- 0.0------------
1987-08-07 11.1 14.6 6.7 1.8 84.0- 5.3 1.7---- 1.2------------
1987-08-06 10.8 15.5 8.2 5.8 77.5- 6.7 2.3---- 0.3------------
1987-08-05 11.7 15.9 8.5 5.9 86.3- 7.0 2.7---- 6.8------------
1987-08-04 15.7 19.6 12.9 8.4 84.0- 7.7 1.3---- 2.2------------
1987-08-03 15.5 20.2 11.8 8.7 74.3- 3.7 1.7---- 1.4------------
1987-08-02 14.8 19.1 12.7 10.0 74.5- 6.7 1.7---- 10.1------------
1987-08-01 14.9 20.3 8.6 6.8 78.5- 5.7 2.7---- 2.0------------
1987-07-31 15.6 20.5 12.1 10.7 81.3- 8.0 1.7---- 2.2------------
1987-07-30 18.0 24.3 12.9 8.0 70.0- 2.7 2.0---- 3.3------------
1987-07-29 14.0 19.4 9.5 7.3 78.0- 6.3 2.3---- 0.0------------
1987-07-28 13.0 15.0 11.3 8.9 83.3- 7.3 2.0---- 7.2------------
1987-07-27 12.4 17.1 8.7 4.5 71.3- 6.3 1.3---- 4.2------------
1987-07-26 12.0 20.8 9.6 9.4 97.5- 6.7 2.0---- 6.5------------
1987-07-25 18.2 24.5 13.9 11.2 76.0- 6.0 2.0---- 4.2------------
1987-07-24 20.2 25.4 16.7 14.1 82.3- 0.7 1.7---- 2.6------------
1987-07-23 20.2 26.8 12.9 9.6 78.8- 2.3 1.0---- 7.1------------
1987-07-22 18.8 23.9 15.1 13.6 77.0- 3.3 0.7---- 0.0------------
1987-07-21 19.5 25.0 13.2 9.2 81.8- 4.0 0.7---- 1.4------------
1987-07-20 20.1 23.4 17.2 13.8 76.0- 2.7 1.3---- 0.0------------
1987-07-19 22.0 26.5 17.0 12.7 73.8- 5.3 2.3---- 13.0------------
1987-07-18 24.6 28.4 20.8 16.4 64.5- 0.7 2.3---- 0.0------------
1987-07-17 24.1 29.8 18.1 14.6 62.5- 3.7 3.3---- 0.0------------
1987-07-16 20.5 27.0 15.1 11.9 78.5- 2.7 2.3---- 0.0------------
1987-07-15 17.5 23.5 10.8 6.1 73.3- 0.7 1.0---- 0.0------------
1987-07-14 16.3 21.0 11.5 8.3 69.5- 0.7 1.3---- 0.0------------
1987-07-13 18.2 23.8 13.5 10.8 76.0- 4.7 0.7---- 0.0------------
1987-07-12 22.1 28.0 16.0 12.1 54.8- 5.3 6.0---- 7.4------------
1987-07-11 17.5 23.7 8.6 5.2 68.5- 0.7 2.0---- 0.0------------
1987-07-10 14.6 19.4 9.4 6.3 75.8- 6.3 1.0---- 0.0------------
1987-07-09 17.2 24.5 13.9 12.8 84.5- 8.0 1.3---- 14.7------------
1987-07-08 21.6 28.3 12.9 9.5 56.5- 0.3 2.0---- 0.0------------
1987-07-07 19.0 25.8 10.4 6.7 78.5- 0.0 1.7---- 0.0------------
1987-07-06 16.7 22.4 8.8 5.3 76.5- 0.0 1.7---- 0.0------------
1987-07-05 14.5 20.3 12.1 8.6 93.0- 5.3 1.3---- 0.2------------
1987-07-04 19.0 23.5 14.7 9.3 84.0- 2.0 2.3---- 0.0------------
1987-07-03 18.2 21.4 15.1 13.1 82.8- 7.7 1.3---- 0.0------------
1987-07-02 17.3 26.8 14.2 13.5 97.5- 8.0 1.7---- 0.1------------
1987-07-01 24.3 30.6 17.1 13.5 78.0- 0.3 1.0---- 0.0------------
1987-06-30 22.4 28.9 14.8 10.8 81.8- 0.0 1.3---- 0.0------------
1987-06-29 20.5 25.3 16.6 13.6 84.8- 4.0 0.7---- 0.0------------
1987-06-28 19.4 24.9 12.6 9.3 82.0- 2.0 1.3---- 0.0------------
1987-06-27 17.2 20.7 14.9 12.1 93.3- 7.3 1.0---- 0.0------------
1987-06-26 17.1 23.8 8.5 4.5 71.5- 5.0 3.3---- 21.3------------
1987-06-25 13.0 18.3 11.4 8.6 92.5- 6.0 2.0---- 4.5------------
1987-06-24 16.1 21.1 12.0 7.5 80.3- 6.0 1.7---- 2.0------------
1987-06-23 15.6 21.2 11.7 9.6 77.8- 6.7 0.7---- 0.0------------
1987-06-22 13.2 17.0 12.4 9.9 97.0- 8.0 2.0---- 1.7------------
1987-06-21 14.1 19.9 8.7 5.3 91.5- 6.7 2.3---- 4.7------------
1987-06-20 14.7 21.2 8.2 8.4 81.8- 4.0 3.3---- 10.9------------
1987-06-19 12.8 18.8 6.6 3.3 80.3- 2.3 2.0---- 0.0------------
1987-06-18 10.2 15.4 6.5 2.5 87.8- 4.0 2.0---- 7.7------------
1987-06-17 10.8 15.3 8.6 2.6 87.5- 2.7 3.7---- 3.0------------
1987-06-16 13.6 22.2 8.8 8.6 92.0- 6.0 2.3---- 18.3------------
710.4 ms

 

Źródłem pochodzenia danych jest Instytut Meteorologii i Gospodarki Wodnej – Państwowy Instytut Badawczy. Dane Instytutu Meteorologii i Gospodarki Wodnej – Państwowego Instytutu Badawczego zostały przetworzone.

Dane źródłowe można odnaleźć na stronie https://dane.imgw.pl